Time;durP1;ratioP1;P1;durP2;ratioP2;P2;SDS_P1;SDS_P2;PMS_P1;PMS_P2;Temp;Humidity;BMP_temperature;BMP_pressure;BME280_temperature;BME280_humidity;BME280_pressure;Samples;Min_cycle;Max_cycle;Signal;HPM_P1;HPM_P2
2022/04/01 00:00:19;;;;;;;89.50;75.07;;;-0.10;99.90;-0.50;98028.00;;;;5000057;28;86840;-71
2022/04/01 00:02:47;;;;;;;96.10;76.47;;;-0.10;99.90;-0.50;98028.00;;;;5007275;28;82801;-71
2022/04/01 00:05:13;;;;;;;88.55;73.93;;;-0.10;99.90;-0.40;98024.00;;;;5000828;28;82926;-71
2022/04/01 00:07:40;;;;;;;95.90;79.72;;;-0.10;99.90;-0.40;98029.00;;;;5000324;28;83923;-71
2022/04/01 00:10:08;;;;;;;104.07;80.70;;;0.00;99.90;-0.40;98032.00;;;;5000704;28;82972;-71
2022/04/01 00:12:43;;;;;;;103.10;80.97;;;-0.10;99.90;-0.40;98030.00;;;;4998511;28;83033;-71
2022/04/01 00:15:12;;;;;;;86.00;74.10;;;-0.10;99.90;-0.50;98022.00;;;;4999981;28;83184;-71
2022/04/01 00:17:39;;;;;;;87.20;76.00;;;-0.10;99.90;-0.40;98025.00;;;;4999770;28;82548;-70
2022/04/01 00:20:06;;;;;;;97.40;80.82;;;-0.10;99.90;-0.40;98036.00;;;;4999944;28;83321;-70
2022/04/01 00:22:32;;;;;;;106.53;83.55;;;0.00;99.90;-0.40;98036.00;;;;5000777;28;83085;-70
2022/04/01 00:24:58;;;;;;;93.65;74.40;;;-0.10;99.90;-0.40;98037.00;;;;5000852;28;83128;-70
2022/04/01 00:27:25;;;;;;;98.15;74.13;;;-0.10;99.90;-0.40;98038.00;;;;5000260;28;83318;-71
2022/04/01 00:29:51;;;;;;;97.22;75.82;;;0.00;99.90;-0.40;98023.00;;;;5003252;28;82719;-71
2022/04/01 00:32:18;;;;;;;94.72;73.43;;;-0.10;99.90;-0.40;98033.00;;;;5001412;28;84460;-70
2022/04/01 00:34:45;;;;;;;90.20;72.25;;;-0.10;99.90;-0.40;98023.00;;;;5003868;28;82727;-71
2022/04/01 00:37:12;;;;;;;93.70;73.88;;;-0.10;99.90;-0.40;98030.00;;;;5000350;28;82762;-70
2022/04/01 00:39:38;;;;;;;90.88;71.25;;;0.00;99.90;-0.40;98034.00;;;;5000766;28;84634;-70
2022/04/01 00:42:05;;;;;;;105.57;81.15;;;0.00;99.90;-0.40;98030.00;;;;4999049;28;84049;-71
2022/04/01 00:44:35;;;;;;;83.70;69.80;;;0.00;99.90;-0.40;98049.00;;;;5001269;28;83611;-70
2022/04/01 00:47:06;;;;;;;93.30;76.50;;;0.00;99.90;-0.40;98041.00;;;;4983577;28;83533;-70
2022/04/01 00:49:34;;;;;;;100.67;78.33;;;0.00;99.90;-0.40;98049.00;;;;4998719;28;84117;-70
2022/04/01 00:52:15;;;;;;;99.90;73.95;;;-0.10;99.90;-0.40;98048.00;;;;5000439;28;84051;-70
2022/04/01 00:54:42;;;;;;;108.88;82.07;;;-0.10;99.90;-0.50;98055.00;;;;5004593;28;82767;-70
2022/04/01 00:57:13;;;;;;;105.82;82.53;;;-0.20;99.90;-0.50;98043.00;;;;4999834;28;82685;-70
2022/04/01 00:59:41;;;;;;;105.55;81.15;;;-0.20;99.90;-0.50;98058.00;;;;5014179;28;83474;-70
2022/04/01 01:02:08;;;;;;;108.70;82.82;;;-0.20;99.90;-0.50;98047.00;;;;5000091;28;83132;-71
2022/04/01 01:04:38;;;;;;;109.25;81.47;;;-0.10;99.90;-0.50;98055.00;;;;5001047;28;82593;-71
2022/04/01 01:07:05;;;;;;;103.28;80.57;;;-0.20;99.90;-0.50;98045.00;;;;4997397;28;83653;-69
2022/04/01 01:09:31;;;;;;;97.93;80.55;;;-0.10;99.90;-0.50;98052.00;;;;4999856;28;83475;-69
2022/04/01 01:11:58;;;;;;;108.43;83.53;;;-0.10;99.90;-0.50;98048.00;;;;4999364;28;83983;-70
2022/04/01 01:14:28;;;;;;;110.75;81.25;;;-0.10;99.90;-0.50;98057.00;;;;4999371;28;82754;-70
2022/04/01 01:16:56;;;;;;;113.03;81.85;;;-0.20;99.90;-0.50;98050.00;;;;4982512;28;83609;-70
2022/04/01 01:19:22;;;;;;;108.15;78.25;;;-0.20;99.90;-0.50;98058.00;;;;4999482;28;83260;-70
2022/04/01 01:21:53;;;;;;;108.85;83.38;;;-0.20;99.90;-0.50;98059.00;;;;4999621;28;84151;-70
2022/04/01 01:24:35;;;;;;;87.30;71.27;;;-0.20;99.90;-0.50;98053.00;;;;5004682;28;83663;-61
2022/04/01 01:27:05;;;;;;;94.32;72.97;;;-0.20;99.90;-0.50;98059.00;;;;4996680;28;84653;-61
2022/04/01 01:29:34;;;;;;;88.43;70.93;;;-0.20;99.90;-0.50;98057.00;;;;5016143;28;83556;-62
2022/04/01 01:32:04;;;;;;;80.57;65.70;;;-0.20;99.90;-0.50;98060.00;;;;5004336;28;83335;-61
2022/04/01 01:34:32;;;;;;;75.25;63.58;;;-0.20;99.90;-0.50;98061.00;;;;5002653;28;82674;-61
2022/04/01 01:37:01;;;;;;;86.03;70.72;;;-0.20;99.90;-0.50;98063.00;;;;5000695;28;83559;-61
2022/04/01 01:39:29;;;;;;;78.13;65.75;;;-0.20;99.90;-0.50;98064.00;;;;5002472;28;83483;-61
2022/04/01 01:41:56;;;;;;;77.55;63.58;;;-0.20;99.90;-0.50;98057.00;;;;5002426;28;84163;-61
2022/04/01 01:44:24;;;;;;;72.45;63.90;;;-0.20;99.90;-0.50;98062.00;;;;5002199;28;83219;-70
2022/04/01 01:46:52;;;;;;;75.35;62.28;;;-0.20;99.90;-0.60;98075.00;;;;5000358;28;83783;-70
2022/04/01 01:49:22;;;;;;;60.70;53.70;;;-0.20;99.90;-0.60;98067.00;;;;5001571;28;83284;-70
2022/04/01 01:54:52;;;;;;;54.88;48.67;;;-0.30;99.90;-0.60;98067.00;;;;5002841;28;83415;-70
2022/04/01 01:57:24;;;;;;;53.53;47.90;;;-0.30;99.90;-0.60;98062.00;;;;4984174;28;83226;-70
2022/04/01 01:59:55;;;;;;;53.80;48.33;;;-0.20;99.90;-0.50;98067.00;;;;5005586;28;83296;-71
2022/04/01 02:02:21;;;;;;;50.42;45.40;;;-0.20;99.90;-0.50;98069.00;;;;5006955;28;82931;-70
2022/04/01 02:04:49;;;;;;;49.83;44.47;;;-0.20;99.90;-0.50;98071.00;;;;5003350;28;82658;-70
2022/04/01 02:07:16;;;;;;;44.22;39.70;;;-0.20;99.90;-0.50;98068.00;;;;5000910;28;83524;-70
2022/04/01 02:09:46;;;;;;;44.80;40.20;;;-0.20;99.90;-0.50;98062.00;;;;5002818;28;83392;-72
2022/04/01 02:12:13;;;;;;;48.28;43.28;;;-0.20;99.90;-0.50;98070.00;;;;5003110;28;83078;-70
2022/04/01 02:14:39;;;;;;;41.30;36.78;;;-0.20;99.90;-0.50;98073.00;;;;5018548;28;83084;-70
2022/04/01 02:17:06;;;;;;;43.90;39.10;;;-0.20;99.90;-0.60;98075.00;;;;5002751;28;83018;-71
2022/04/01 02:19:32;;;;;;;44.30;39.72;;;-0.20;99.90;-0.50;98070.00;;;;5000333;28;84522;-66
2022/04/01 02:22:01;;;;;;;50.70;45.30;;;-0.20;99.90;-0.60;98076.00;;;;5005885;28;83233;-66
2022/04/01 02:24:31;;;;;;;49.60;44.25;;;-0.20;99.90;-0.60;98068.00;;;;5001981;28;83002;-66
2022/04/01 02:26:57;;;;;;;48.33;43.28;;;-0.20;99.90;-0.60;98084.00;;;;5001903;28;84420;-66
2022/04/01 02:29:24;;;;;;;51.08;45.88;;;-0.20;99.90;-0.60;98079.00;;;;5002830;28;85417;-66
2022/04/01 02:32:19;;;;;;;44.55;40.15;;;-0.20;99.90;-0.60;98084.00;;;;5007700;28;82680;-65
2022/04/01 02:34:48;;;;;;;45.40;40.72;;;-0.20;99.90;-0.60;98079.00;;;;5002328;28;83998;-65
2022/04/01 02:37:15;;;;;;;42.13;38.00;;;-0.20;99.90;-0.60;98087.00;;;;5006726;28;82914;-65
2022/04/01 02:39:41;;;;;;;39.53;35.45;;;-0.30;99.90;-0.60;98083.00;;;;5002163;28;83435;-65
2022/04/01 02:42:08;;;;;;;40.08;36.20;;;-0.20;99.90;-0.60;98088.00;;;;5003679;28;84080;-65
2022/04/01 02:44:36;;;;;;;37.05;33.33;;;-0.30;99.90;-0.60;98073.00;;;;5001043;28;82797;-66
2022/04/01 02:47:03;;;;;;;36.58;32.92;;;-0.30;99.90;-0.70;98080.00;;;;5002027;28;82846;-66
2022/04/01 02:49:29;;;;;;;36.92;33.33;;;-0.30;99.90;-0.60;98097.00;;;;5000488;28;83204;-66
2022/04/01 02:52:01;;;;;;;37.05;33.55;;;-0.30;99.90;-0.60;98089.00;;;;4984374;28;83632;-66
2022/04/01 02:54:33;;;;;;;36.28;32.83;;;-0.30;99.90;-0.60;98091.00;;;;5001556;28;82685;-66
2022/04/01 02:57:00;;;;;;;32.38;29.27;;;-0.30;99.90;-0.60;98097.00;;;;4985711;28;83190;-66
2022/04/01 02:59:26;;;;;;;34.10;30.90;;;-0.30;99.90;-0.60;98086.00;;;;5008191;28;82602;-66
2022/04/01 03:01:55;;;;;;;33.90;30.58;;;-0.30;99.90;-0.60;98081.00;;;;5004491;28;85350;-70
2022/04/01 03:04:23;;;;;;;31.50;28.60;;;-0.30;99.90;-0.60;98078.00;;;;5004382;28;82533;-61
2022/04/01 03:06:52;;;;;;;31.73;28.90;;;-0.30;99.90;-0.60;98087.00;;;;4985495;28;83094;-62
2022/04/01 03:09:19;;;;;;;33.88;30.77;;;-0.30;99.90;-0.60;98085.00;;;;5002121;28;83329;-62
2022/04/01 03:11:58;;;;;;;32.80;29.80;;;-0.20;99.90;-0.60;98085.00;;;;4986122;28;82935;-62
2022/04/01 03:14:53;;;;;;;32.78;29.77;;;-0.20;99.90;-0.60;98095.00;;;;4994355;28;83015;-62
2022/04/01 03:17:38;;;;;;;33.05;30.05;;;-0.30;99.90;-0.60;98104.00;;;;5001709;28;83692;-62
2022/04/01 03:20:14;;;;;;;33.75;30.55;;;-0.30;99.90;-0.60;98092.00;;;;5004082;28;83609;-62
2022/04/01 03:22:45;;;;;;;29.73;26.90;;;-0.30;99.90;-0.60;98086.00;;;;5003102;28;84464;-62
2022/04/01 03:25:20;;;;;;;29.95;27.00;;;-0.20;99.90;-0.60;98084.00;;;;5006873;28;82894;-62
2022/04/01 03:28:13;;;;;;;26.50;23.90;;;-0.20;99.90;-0.60;98090.00;;;;5015339;28;82862;-62
2022/04/01 03:30:40;;;;;;;24.85;22.45;;;-0.30;99.90;-0.60;98081.00;;;;4987594;28;83866;-62
2022/04/01 03:33:07;;;;;;;27.83;24.98;;;-0.30;99.90;-0.60;98096.00;;;;5003382;28;83951;-62
2022/04/01 03:35:33;;;;;;;25.27;22.90;;;-0.20;99.90;-0.60;98082.00;;;;5004989;28;83423;-62
2022/04/01 03:38:00;;;;;;;27.10;24.42;;;-0.20;99.90;-0.60;98100.00;;;;5002675;28;82639;-62
2022/04/01 03:40:30;;;;;;;26.55;23.95;;;-0.20;99.90;-0.60;98094.00;;;;4989906;28;86317;-62
2022/04/01 03:42:56;;;;;;;26.27;23.48;;;-0.20;99.90;-0.60;98107.00;;;;4988730;28;84546;-62
2022/04/01 03:45:23;;;;;;;30.38;27.25;;;-0.20;99.90;-0.60;98091.00;;;;4984277;28;83114;-62
2022/04/01 03:48:15;;;;;;;27.13;24.35;;;-0.30;99.90;-0.60;98099.00;;;;4997829;28;83858;-62
2022/04/01 03:50:45;;;;;;;30.83;27.83;;;-0.30;99.90;-0.60;98105.00;;;;4984675;28;83220;-62
2022/04/01 03:53:12;;;;;;;29.25;26.20;;;-0.30;99.90;-0.70;98100.00;;;;5000894;28;83219;-62
2022/04/01 03:55:45;;;;;;;29.15;26.17;;;-0.30;99.90;-0.70;98103.00;;;;5006111;28;84053;-62
2022/04/01 03:58:35;;;;;;;31.23;28.05;;;-0.30;99.90;-0.70;98112.00;;;;4983605;28;82916;-62
2022/04/01 04:01:20;;;;;;;30.67;27.77;;;-0.30;99.90;-0.60;98112.00;;;;5001054;28;86148;-62
2022/04/01 04:03:52;;;;;;;32.15;28.75;;;-0.30;99.90;-0.70;98102.00;;;;5002658;28;84055;-62
2022/04/01 04:06:19;;;;;;;32.13;28.92;;;-0.30;99.90;-0.70;98096.00;;;;5005003;28;83308;-62
2022/04/01 04:08:46;;;;;;;33.75;30.30;;;-0.40;99.90;-0.70;98100.00;;;;5000694;28;83577;-62
2022/04/01 04:11:14;;;;;;;35.58;32.10;;;-0.30;99.90;-0.70;98100.00;;;;5000393;28;83999;-62
2022/04/01 04:13:52;;;;;;;36.30;32.80;;;-0.30;99.90;-0.70;98103.00;;;;4999700;28;82998;-62
2022/04/01 04:16:31;;;;;;;34.58;31.17;;;-0.30;99.90;-0.60;98112.00;;;;5000658;28;82606;-62
2022/04/01 04:19:41;;;;;;;35.83;32.15;;;-0.30;99.90;-0.60;98105.00;;;;5005998;28;83696;-62
2022/04/01 04:22:16;;;;;;;36.35;32.75;;;-0.30;99.90;-0.60;98109.00;;;;5001163;28;83419;-62
2022/04/01 04:25:00;;;;;;;37.97;34.13;;;-0.30;99.90;-0.70;98107.00;;;;4983466;28;82857;-62
2022/04/01 04:27:29;;;;;;;36.70;32.88;;;-0.30;99.90;-0.60;98114.00;;;;5007685;28;83377;-62
2022/04/01 04:30:10;;;;;;;34.78;31.27;;;-0.30;99.90;-0.60;98116.00;;;;4984370;28;82694;-62
2022/04/01 04:33:09;;;;;;;35.90;32.40;;;-0.30;99.90;-0.70;98119.00;;;;4998254;28;86379;-62
2022/04/01 04:35:40;;;;;;;36.70;33.28;;;-0.30;99.90;-0.70;98114.00;;;;5002966;28;83226;-62
2022/04/01 04:38:09;;;;;;;35.85;32.30;;;-0.30;99.90;-0.70;98103.00;;;;5001094;28;84765;-62
2022/04/01 04:40:36;;;;;;;36.20;32.72;;;-0.30;99.90;-0.70;98122.00;;;;5000467;28;82733;-62
2022/04/01 04:43:18;;;;;;;32.70;29.60;;;-0.30;99.90;-0.70;98121.00;;;;4984124;28;83055;-62
2022/04/01 04:45:50;;;;;;;36.67;33.17;;;-0.30;99.90;-0.70;98124.00;;;;5005204;28;83310;-62
2022/04/01 04:48:17;;;;;;;35.10;31.70;;;-0.30;99.90;-0.60;98127.00;;;;5005834;28;82770;-63
2022/04/01 04:50:47;;;;;;;33.53;30.33;;;-0.30;99.90;-0.60;98128.00;;;;5001693;28;83575;-62
2022/04/01 04:53:14;;;;;;;32.75;29.58;;;-0.30;99.90;-0.60;98122.00;;;;5000948;28;84463;-62
2022/04/01 04:55:41;;;;;;;31.90;28.90;;;-0.30;99.90;-0.70;98130.00;;;;4999558;28;83104;-62
2022/04/01 04:58:11;;;;;;;33.00;29.80;;;-0.30;99.90;-0.60;98141.00;;;;5003344;28;82841;-62
2022/04/01 05:00:53;;;;;;;31.77;28.88;;;-0.30;99.90;-0.70;98144.00;;;;4999298;28;84426;-61
2022/04/01 05:03:58;;;;;;;30.77;27.88;;;-0.30;99.90;-0.70;98151.00;;;;4998958;28;83149;-62
2022/04/01 05:06:37;;;;;;;32.95;29.58;;;-0.40;99.90;-0.70;98148.00;;;;5004090;28;83165;-62
2022/04/01 05:09:51;;;;;;;32.17;29.08;;;-0.30;99.90;-0.70;98154.00;;;;5003032;28;83491;-62
2022/04/01 05:12:53;;;;;;;33.25;30.15;;;-0.40;99.90;-0.60;98150.00;;;;5002214;28;83670;-62
2022/04/01 05:15:36;;;;;;;31.48;28.35;;;-0.30;99.90;-0.60;98146.00;;;;5002633;28;83600;-62
2022/04/01 05:19:00;;;;;;;31.10;28.08;;;-0.20;99.90;-0.50;98142.00;;;;5004443;28;83477;-62
2022/04/01 05:21:38;;;;;;;30.75;27.77;;;-0.20;99.90;-0.60;98155.00;;;;4988099;28;83906;-61
2022/04/01 05:24:08;;;;;;;30.60;27.70;;;-0.20;99.90;-0.50;98148.00;;;;5001186;28;83089;-62
2022/04/01 05:26:41;;;;;;;29.50;26.70;;;-0.20;99.90;-0.50;98150.00;;;;5001420;28;83246;-63
2022/04/01 05:29:25;;;;;;;30.25;27.23;;;-0.20;99.90;-0.40;98159.00;;;;5003381;28;83154;-63
2022/04/01 05:32:07;;;;;;;30.25;27.15;;;-0.10;99.90;-0.50;98145.00;;;;4987469;28;82836;-61
2022/04/01 05:34:45;;;;;;;29.85;27.05;;;-0.20;99.90;-0.50;98152.00;;;;5002292;28;83108;-61
2022/04/01 05:37:14;;;;;;;27.95;25.25;;;-0.20;99.90;-0.50;98145.00;;;;5002457;28;83188;-61
2022/04/01 05:39:47;;;;;;;29.33;26.48;;;-0.10;99.90;-0.50;98137.00;;;;5003037;28;83141;-62
2022/04/01 05:42:18;;;;;;;29.73;26.77;;;-0.20;99.90;-0.50;98150.00;;;;5003002;28;83302;-62
2022/04/01 05:45:08;;;;;;;31.00;27.88;;;-0.10;99.90;-0.50;98143.00;;;;5002354;28;82714;-62
2022/04/01 05:47:36;;;;;;;30.60;27.77;;;-0.10;99.90;-0.50;98146.00;;;;5001303;28;83294;-61
2022/04/01 05:50:03;;;;;;;31.83;28.55;;;-0.10;99.90;-0.50;98155.00;;;;5004982;28;84053;-62
2022/04/01 05:52:36;;;;;;;30.05;27.25;;;-0.10;99.90;-0.50;98143.00;;;;4987110;28;83603;-62
2022/04/01 05:55:03;;;;;;;;;;;-0.10;99.90;-0.50;98165.00;;;;5004165;28;83342;-62
2022/04/01 05:57:31;;;;;;;30.90;27.88;;;-0.20;99.90;-0.50;98157.00;;;;4987966;28;82166;-62
2022/04/01 05:59:59;;;;;;;30.58;27.58;;;-0.20;99.90;-0.50;98159.00;;;;5001605;28;82944;-62
2022/04/01 06:02:49;;;;;;;30.15;27.13;;;-0.20;99.90;-0.50;98166.00;;;;5006447;28;82880;-62
2022/04/01 06:05:48;;;;;;;30.73;27.92;;;-0.20;99.90;-0.40;98163.00;;;;4985058;28;86644;-62
2022/04/01 06:08:44;;;;;;;29.20;26.30;;;-0.10;99.90;-0.40;98162.00;;;;5002957;28;84457;-62
2022/04/01 06:11:45;;;;;;;27.88;24.83;;;-0.10;99.90;-0.40;98159.00;;;;4992841;28;85059;-62
2022/04/01 06:14:55;;;;;;;26.70;24.10;;;-0.10;99.90;-0.50;98166.00;;;;5001323;28;83199;-62
2022/04/01 06:18:24;;;;;;;26.73;24.13;;;-0.10;99.90;-0.50;98163.00;;;;5000778;28;82775;-63
2022/04/01 06:20:54;;;;;;;25.42;22.85;;;-0.10;99.90;-0.50;98142.00;;;;5004609;28;83211;-63
2022/04/01 06:23:41;;;;;;;24.55;22.17;;;-0.20;99.90;-0.50;98153.00;;;;5001576;28;84180;-63
2022/04/01 06:26:13;;;;;;;25.30;22.80;;;-0.20;99.90;-0.50;98157.00;;;;5010231;28;82566;-63
2022/04/01 06:29:28;;;;;;;23.88;21.50;;;-0.20;99.90;-0.50;98135.00;;;;5003321;28;82747;-62
2022/04/01 06:32:30;;;;;;;25.02;22.70;;;-0.20;99.90;-0.40;98147.00;;;;5004173;28;82681;-63
2022/04/01 06:35:40;;;;;;;23.40;21.25;;;-0.10;99.90;-0.40;98145.00;;;;5001635;28;83545;-66
2022/04/01 06:38:55;;;;;;;23.33;21.15;;;-0.10;99.90;-0.40;98158.00;;;;4978923;28;83944;-62
2022/04/01 06:41:26;;;;;;;22.45;20.15;;;0.00;99.90;-0.30;98156.00;;;;5001541;28;82835;-63
2022/04/01 06:43:59;;;;;;;21.05;19.15;;;0.00;99.90;-0.20;98156.00;;;;5002961;28;83421;-64
2022/04/01 06:46:44;;;;;;;20.70;18.75;;;0.10;99.90;-0.20;98158.00;;;;5002299;28;83731;-65
2022/04/01 06:49:14;;;;;;;21.83;19.85;;;0.20;99.90;-0.10;98158.00;;;;5005088;28;83759;-65
2022/04/01 06:52:02;;;;;;;20.08;18.10;;;0.30;99.90;0.00;98153.00;;;;5002729;28;83587;-65
2022/04/01 06:55:08;;;;;;;20.35;18.45;;;0.30;99.90;0.10;98153.00;;;;4999337;28;85196;-66
2022/04/01 06:57:53;;;;;;;19.35;17.45;;;0.40;99.90;0.20;98144.00;;;;5002422;28;83241;-65
2022/04/01 07:00:45;;;;;;;19.23;17.33;;;0.50;99.90;0.40;98139.00;;;;5004144;27;83140;-66
2022/04/01 07:03:12;;;;;;;19.50;17.50;;;0.70;99.90;0.40;98151.00;;;;4978453;28;85567;-65
2022/04/01 07:05:39;;;;;;;18.73;17.02;;;0.70;99.90;0.50;98156.00;;;;4995223;28;83305;-64
2022/04/01 07:08:07;;;;;;;17.80;16.20;;;0.70;99.90;0.40;98152.00;;;;4999151;28;83727;-63
2022/04/01 07:10:33;;;;;;;16.67;15.07;;;0.70;99.90;0.30;98164.00;;;;4996356;28;83248;-63
2022/04/01 07:13:00;;;;;;;17.15;15.40;;;0.60;99.90;0.20;98146.00;;;;4999746;28;83195;-64
2022/04/01 07:15:26;;;;;;;18.23;16.17;;;0.50;99.90;0.30;98148.00;;;;4999478;28;84356;-64
2022/04/01 07:17:53;;;;;;;15.73;14.05;;;0.60;99.90;0.20;98145.00;;;;4982165;28;83391;-64
2022/04/01 07:20:22;;;;;;;16.52;14.93;;;0.60;99.90;0.30;98158.00;;;;5001276;28;83290;-65
2022/04/01 07:22:51;;;;;;;14.32;13.02;;;0.60;99.90;0.30;98147.00;;;;5000324;28;82942;-63
2022/04/01 07:25:17;;;;;;;14.52;13.13;;;0.60;99.90;0.30;98142.00;;;;5001916;28;84375;-65
2022/04/01 07:27:44;;;;;;;14.35;12.88;;;0.70;99.90;0.40;98142.00;;;;5000076;28;84167;-65
2022/04/01 07:30:11;;;;;;;14.02;12.60;;;0.70;99.90;0.50;98164.00;;;;4999237;28;82768;-65
2022/04/01 07:32:39;;;;;;;15.90;13.15;;;0.80;99.90;0.40;98156.00;;;;4997832;28;82662;-65
2022/04/01 07:35:12;;;;;;;14.02;12.73;;;0.70;99.90;0.20;98159.00;;;;4997780;28;83488;-64
2022/04/01 07:37:38;;;;;;;14.52;13.02;;;0.50;99.90;0.30;98154.00;;;;4998703;28;82847;-63
2022/04/01 07:40:05;;;;;;;14.45;12.95;;;0.60;99.90;0.30;98145.00;;;;4998019;28;84468;-63
2022/04/01 07:42:32;;;;;;;13.80;12.55;;;0.60;99.90;0.30;98161.00;;;;4998045;28;83660;-61
2022/04/01 07:44:58;;;;;;;15.80;14.35;;;0.60;99.90;0.30;98149.00;;;;4999035;28;83632;-61
2022/04/01 07:47:25;;;;;;;18.27;13.35;;;0.60;99.90;0.30;98152.00;;;;4995016;28;83662;-62
2022/04/01 07:49:52;;;;;;;14.18;12.77;;;0.60;99.90;0.30;98153.00;;;;4998367;28;84183;-62
2022/04/01 07:52:21;;;;;;;13.40;12.15;;;0.60;99.90;0.30;98166.00;;;;5000773;28;82784;-62
2022/04/01 07:54:50;;;;;;;13.45;11.55;;;0.60;99.90;0.30;98163.00;;;;4997858;28;83872;-61
2022/04/01 07:57:18;;;;;;;11.32;10.23;;;0.60;99.90;0.20;98163.00;;;;5000897;28;82658;-61
2022/04/01 07:59:46;;;;;;;12.55;11.23;;;0.50;99.90;0.20;98156.00;;;;4999753;28;82677;-61
2022/04/01 08:02:13;;;;;;;12.10;10.95;;;0.50;99.90;0.30;98147.00;;;;4992599;28;82925;-61
2022/04/01 08:04:39;;;;;;;12.27;10.95;;;0.60;99.90;0.40;98155.00;;;;4997549;28;83238;-61
2022/04/01 08:07:06;;;;;;;13.00;11.70;;;0.70;99.90;0.40;98153.00;;;;4998839;28;84233;-62
2022/04/01 08:09:35;;;;;;;12.52;10.60;;;0.70;99.90;0.40;98150.00;;;;4998940;28;82885;-62
2022/04/01 08:12:02;;;;;;;10.73;9.70;;;0.70;99.90;0.30;98147.00;;;;4999394;28;83130;-62
2022/04/01 08:14:28;;;;;;;11.98;10.77;;;0.70;99.90;0.50;98163.00;;;;4999819;28;82409;-62
2022/04/01 08:16:55;;;;;;;11.23;10.00;;;0.80;99.90;0.60;98155.00;;;;5002751;28;83018;-62
2022/04/01 08:19:22;;;;;;;11.10;10.05;;;0.90;99.90;0.70;98162.00;;;;4997646;28;82855;-61
2022/04/01 08:21:49;;;;;;;10.93;9.73;;;1.00;99.90;0.80;98166.00;;;;5002977;28;83047;-62
2022/04/01 08:24:16;;;;;;;11.18;10.07;;;1.10;99.90;0.90;98161.00;;;;5003188;28;83430;-71
2022/04/01 08:26:43;;;;;;;11.52;10.43;;;1.20;99.90;0.90;98163.00;;;;4981297;28;83096;-71
2022/04/01 08:29:09;;;;;;;11.60;10.43;;;1.20;99.90;0.90;98164.00;;;;5003130;28;83491;-71
2022/04/01 08:31:37;;;;;;;10.68;9.57;;;1.20;99.90;0.80;98163.00;;;;4998413;28;84837;-63
2022/04/01 08:34:03;;;;;;;11.48;10.25;;;1.10;99.90;0.90;98170.00;;;;5001709;28;83492;-63
2022/04/01 08:36:30;;;;;;;11.90;9.65;;;1.20;99.90;1.00;98182.00;;;;4999064;28;83260;-62
2022/04/01 08:38:56;;;;;;;11.32;10.13;;;1.30;99.90;1.00;98175.00;;;;4998873;28;83024;-62
2022/04/01 08:41:23;;;;;;;11.23;10.10;;;1.30;99.90;0.90;98166.00;;;;4982108;28;85275;-63
2022/04/01 08:43:51;;;;;;;12.20;10.52;;;1.20;99.90;1.00;98176.00;;;;4984030;28;83772;-62
2022/04/01 08:46:20;;;;;;;11.10;9.95;;;1.30;99.90;1.20;98181.00;;;;4999557;28;82907;-63
2022/04/01 08:48:47;;;;;;;11.27;10.07;;;1.50;99.90;1.40;98166.00;;;;4997767;28;82327;-63
2022/04/01 08:51:15;;;;;;;11.27;9.77;;;1.70;99.90;1.60;98165.00;;;;4998711;28;83662;-64
2022/04/01 08:53:44;;;;;;;10.35;9.20;;;1.80;99.90;1.70;98166.00;;;;4982290;28;83501;-64
2022/04/01 08:56:12;;;;;;;10.82;9.50;;;1.90;99.90;1.80;98175.00;;;;4998446;28;84326;-63
2022/04/01 08:58:39;;;;;;;10.52;9.20;;;2.10;99.90;1.90;98178.00;;;;5000112;28;82382;-62
2022/04/01 09:01:06;;;;;;;11.18;9.00;;;2.00;99.90;2.00;98170.00;;;;4999304;28;83916;-62
2022/04/01 09:03:35;;;;;;;10.15;8.43;;;2.20;99.90;2.10;98180.00;;;;4997649;28;82087;-63
2022/04/01 09:06:03;;;;;;;11.43;8.88;;;2.30;99.90;2.20;98170.00;;;;5000605;28;82147;-63
2022/04/01 09:08:37;;;;;;;12.95;8.63;;;2.40;99.90;2.30;98178.00;;;;5016227;28;82457;-62
2022/04/01 09:11:16;;;;;;;9.77;8.43;;;2.50;99.90;2.40;98177.00;;;;4997938;28;82256;-63
2022/04/01 09:13:42;;;;;;;9.70;8.40;;;2.50;99.90;2.40;98187.00;;;;5000164;28;82271;-63
2022/04/01 09:16:22;;;;;;;11.15;8.80;;;2.60;99.90;2.50;98196.00;;;;4995651;28;83562;-63
2022/04/01 09:18:49;;;;;;;10.13;9.13;;;2.70;99.90;2.30;98188.00;;;;4982170;28;85020;-67
2022/04/01 09:21:15;;;;;;;11.85;8.90;;;2.50;99.90;2.20;98174.00;;;;4999104;28;86219;-62
2022/04/01 09:23:48;;;;;;;10.52;8.35;;;2.50;99.90;2.40;98177.00;;;;4999954;28;84396;-62
2022/04/01 09:26:21;;;;;;;13.25;8.38;;;2.60;99.90;2.20;98182.00;;;;4997369;28;83693;-62
2022/04/01 09:28:51;;;;;;;9.90;8.43;;;2.40;99.90;2.10;98185.00;;;;4999528;28;82526;-63
2022/04/01 09:31:18;;;;;;;10.25;8.02;;;2.30;99.90;2.30;98173.00;;;;4999725;28;82390;-63
2022/04/01 09:33:50;;;;;;;11.15;7.90;;;2.40;99.90;2.40;98175.00;;;;5000952;28;82281;-70
2022/04/01 09:36:37;;;;;;;12.02;8.35;;;2.60;99.90;2.40;98171.00;;;;4999114;28;82450;-71
2022/04/01 09:39:06;;;;;;;9.70;8.45;;;2.50;99.90;2.50;98173.00;;;;4999041;28;83386;-70
2022/04/01 09:41:39;;;;;;;8.85;7.13;;;2.60;99.90;2.50;98173.00;;;;4999913;28;83102;-71
2022/04/01 09:44:20;;;;;;;9.35;6.93;;;2.60;99.90;2.60;98183.00;;;;4999259;28;83945;-71
2022/04/01 09:46:50;;;;;;;10.73;7.05;;;2.70;99.90;2.60;98174.00;;;;4999257;28;83901;-70
2022/04/01 09:49:44;;;;;;;9.98;7.32;;;2.80;99.90;2.80;98158.00;;;;4999311;28;83659;-70
2022/04/01 09:52:18;;;;;;;10.48;7.45;;;2.80;99.90;2.90;98171.00;;;;5000855;28;82449;-70
2022/04/01 09:54:49;;;;;;;7.70;6.13;;;3.00;99.90;2.80;98161.00;;;;5003155;28;82400;-70
2022/04/01 09:57:18;;;;;;;10.88;6.63;;;2.90;99.90;2.60;98153.00;;;;5000587;28;83567;-72
2022/04/01 09:59:45;;;;;;;10.77;6.88;;;2.70;99.90;2.60;98156.00;;;;5000842;28;82520;-71
2022/04/01 10:02:12;;;;;;;8.18;6.72;;;2.60;99.90;2.70;98164.00;;;;5000029;28;84028;-70
2022/04/01 10:04:39;;;;;;;9.02;7.13;;;2.80;99.90;2.80;98150.00;;;;4996504;28;83977;-71
2022/04/01 10:07:05;;;;;;;9.07;7.05;;;2.90;99.90;2.80;98144.00;;;;4999408;28;82344;-71
2022/04/01 10:09:34;;;;;;;8.93;7.10;;;2.80;99.90;3.00;98146.00;;;;5001187;28;83271;-70
2022/04/01 10:12:06;;;;;;;10.20;6.28;;;3.10;99.90;3.10;98140.00;;;;5002087;28;83539;-70
2022/04/01 10:14:33;;;;;;;8.98;6.30;;;3.10;99.90;3.10;98151.00;;;;5000398;28;84779;-70
2022/04/01 10:17:01;;;;;;;7.45;5.93;;;3.10;99.90;3.10;98147.00;;;;5001990;28;82494;-71
2022/04/01 10:19:34;;;;;;;7.32;6.10;;;3.20;99.90;3.20;98135.00;;;;5002299;28;82444;-71
2022/04/01 10:22:01;;;;;;;7.78;6.40;;;3.20;99.90;3.30;98131.00;;;;5001265;28;83671;-70
2022/04/01 10:24:52;;;;;;;7.85;6.35;;;3.30;99.90;3.40;98137.00;;;;5004797;28;84149;-71
2022/04/01 10:27:54;;;;;;;7.25;5.65;;;3.50;99.90;3.40;98110.00;;;;5001025;28;82564;-70
2022/04/01 10:30:25;;;;;;;6.78;5.93;;;3.40;99.90;3.40;98117.00;;;;4999862;28;83344;-71
2022/04/01 10:32:51;;;;;;;6.88;5.55;;;3.50;99.90;3.60;98135.00;;;;5001097;28;82623;-72
2022/04/01 10:35:28;;;;;;;7.22;6.20;;;3.70;99.90;3.60;98125.00;;;;5002217;28;82242;-71
2022/04/01 10:38:19;;;;;;;7.55;5.65;;;3.60;99.90;3.60;98132.00;;;;4995891;28;82846;-70
2022/04/01 10:40:50;;;;;;;6.90;5.50;;;3.70;99.90;3.60;98121.00;;;;5000048;28;83608;-70
2022/04/01 10:43:28;;;;;;;7.00;5.55;;;3.60;99.90;3.70;98111.00;;;;4984408;28;85521;-71
2022/04/01 10:46:05;;;;;;;9.50;5.55;;;3.70;99.90;3.70;98123.00;;;;5000978;28;83464;-71
2022/04/01 10:51:41;;;;;;;7.93;5.80;;;3.80;99.90;3.80;98107.00;;;;4998728;28;82588;-71
2022/04/01 10:54:12;;;;;;;7.60;5.18;;;3.90;99.90;3.70;98100.00;;;;4983413;28;85871;-70
2022/04/01 10:57:05;;;;;;;6.38;5.28;;;3.80;99.90;3.80;98092.00;;;;4998172;28;82743;-72
2022/04/01 10:59:50;;;;;;;9.07;5.50;;;4.00;99.90;3.70;98127.00;;;;5000119;28;82217;-71
2022/04/01 11:02:22;;;;;;;8.90;5.63;;;3.80;99.90;3.50;98107.00;;;;5000130;28;82384;-71
2022/04/01 11:04:53;;;;;;;6.28;5.20;;;3.60;99.90;3.50;98099.00;;;;5001320;28;86101;-69
2022/04/01 11:07:22;;;;;;;8.70;5.57;;;3.60;99.90;3.60;98092.00;;;;5000144;28;84799;-69
2022/04/01 11:09:56;;;;;;;7.03;5.47;;;3.70;99.90;3.60;98078.00;;;;5002674;28;82882;-69
2022/04/01 11:12:29;;;;;;;8.35;5.85;;;3.70;99.90;3.70;98067.00;;;;4998852;28;82923;-70
2022/04/01 11:15:16;;;;;;;10.18;5.45;;;3.80;99.90;3.80;98065.00;;;;4997850;28;82939;-68
2022/04/01 11:17:55;;;;;;;9.52;5.40;;;4.00;99.90;3.80;98065.00;;;;4998761;28;83494;-69
2022/04/01 11:20:21;;;;;;;8.50;4.80;;;3.90;99.90;3.90;98049.00;;;;4998988;28;82227;-70